createdAt,value
2022-08-11T00:05:32.981Z,1.23
2022-08-11T00:11:15.670Z,1.07
2022-08-11T00:16:58.243Z,1.50
2022-08-11T00:20:13.824Z,1.30
2022-08-11T00:22:41.155Z,1.20
2022-08-11T00:25:29.688Z,1.40
2022-08-11T00:36:44.064Z,1.67
2022-08-11T00:42:22.337Z,1.53
2022-08-11T00:50:55.717Z,1.27
2022-08-11T00:57:36.959Z,1.47
2022-08-11T01:06:33.243Z,1.43
2022-08-11T01:13:08.557Z,1.67
2022-08-11T01:19:21.545Z,1.30
2022-08-11T01:25:19.185Z,1.20
2022-08-11T01:28:51.648Z,1.60
2022-08-11T01:32:12.083Z,1.40
2022-08-11T01:38:34.273Z,1.57
2022-08-11T01:47:50.521Z,1.27
2022-08-11T01:53:21.612Z,1.73
2022-08-11T01:59:11.552Z,1.50
2022-08-11T02:05:16.225Z,1.30
2022-08-11T02:11:19.192Z,1.50
2022-08-11T02:17:32.674Z,1.70
2022-08-11T02:20:55.249Z,1.77
2022-08-11T02:26:28.577Z,1.80
2022-08-11T02:32:28.465Z,1.50
2022-08-11T02:38:05.009Z,1.40
2022-08-11T02:43:50.951Z,1.60
2022-08-11T02:49:59.975Z,1.50
2022-08-11T02:52:50.139Z,1.80
2022-08-11T03:01:19.963Z,2.00
2022-08-11T03:09:52.115Z,1.50
2022-08-11T03:13:06.142Z,1.70
2022-08-11T03:18:42.282Z,1.50
2022-08-11T03:24:22.132Z,1.73
2022-08-11T03:29:56.034Z,1.40
2022-08-11T03:36:03.345Z,1.80
2022-08-11T03:39:00.144Z,1.73
2022-08-11T03:44:46.876Z,1.43
2022-08-11T03:47:55.883Z,1.87
2022-08-11T03:54:04.491Z,1.80
2022-08-11T04:00:20.109Z,1.93
2022-08-11T04:10:34.516Z,2.07
2022-08-11T04:14:04.382Z,1.90
2022-08-11T04:20:14.236Z,1.73
2022-08-11T04:26:29.405Z,1.90
2022-08-11T04:32:23.077Z,1.93
2022-08-11T04:38:38.720Z,2.00
2022-08-11T04:48:08.761Z,1.83
2022-08-11T04:54:19.346Z,1.90
2022-08-11T05:00:43.718Z,2.00
2022-08-11T05:06:51.824Z,1.80
2022-08-11T05:09:56.477Z,1.93
2022-08-11T05:16:08.847Z,1.90
2022-08-11T05:24:49.084Z,2.10
2022-08-11T05:33:21.672Z,2.10
2022-08-11T05:36:13.612Z,2.60
2022-08-11T05:42:10.188Z,2.10
2022-08-11T05:48:10.453Z,2.00
2022-08-11T05:51:20.269Z,1.80
2022-08-11T05:57:02.610Z,1.87
2022-08-11T06:02:55.694Z,2.00
2022-08-11T06:08:37.506Z,1.83
2022-08-11T06:14:17.098Z,1.80
2022-08-11T06:19:55.682Z,1.80
2022-08-11T06:25:36.400Z,2.00
2022-08-11T06:34:02.329Z,1.90
2022-08-11T06:39:53.780Z,1.90
2022-08-11T06:48:19.920Z,1.80
2022-08-11T06:51:13.726Z,2.00
2022-08-11T06:57:29.379Z,2.10
2022-08-11T07:05:44.253Z,2.00
2022-08-11T07:12:10.515Z,1.90
2022-08-11T07:15:17.438Z,2.03
2022-08-11T07:22:01.476Z,2.10
2022-08-11T07:24:23.121Z,2.20
2022-08-11T07:30:04.636Z,2.13
2022-08-11T07:32:55.028Z,2.47
2022-08-11T07:38:47.189Z,2.07
2022-08-11T07:44:25.025Z,1.90
2022-08-11T07:50:23.032Z,2.13
2022-08-11T07:56:01.625Z,2.03
2022-08-11T08:01:57.213Z,2.20
2022-08-11T08:07:52.216Z,2.30
2022-08-11T08:13:46.384Z,2.13
2022-08-11T08:19:30.461Z,2.57
2022-08-11T08:22:38.983Z,2.13
2022-08-11T08:30:52.410Z,2.40
2022-08-11T08:36:26.646Z,2.27
2022-08-11T08:42:05.489Z,2.03
2022-08-11T08:44:58.803Z,2.30
2022-08-11T08:50:55.308Z,2.33
2022-08-11T08:59:21.179Z,2.50
2022-08-11T09:04:58.489Z,2.03
2022-08-11T09:07:48.116Z,2.37
2022-08-11T09:10:37.274Z,2.10
2022-08-11T09:16:12.509Z,2.10
2022-08-11T09:21:54.640Z,2.20
2022-08-11T09:25:01.149Z,2.30
2022-08-11T09:27:50.327Z,2.73
2022-08-11T09:36:38.909Z,1.90
2022-08-11T09:42:16.568Z,2.10
2022-08-11T09:45:05.850Z,2.10
2022-08-11T09:47:54.178Z,2.00
2022-08-11T09:53:37.450Z,2.00
2022-08-11T09:56:42.100Z,2.20
2022-08-11T10:02:20.507Z,2.43
2022-08-11T10:07:52.338Z,2.33
2022-08-11T10:16:16.028Z,2.20
2022-08-11T10:21:54.223Z,2.20
2022-08-11T10:27:43.139Z,2.30
2022-08-11T10:33:36.770Z,2.13
2022-08-11T10:36:21.564Z,2.63
2022-08-11T10:42:35.031Z,2.10
2022-08-11T10:47:52.882Z,2.40
2022-08-11T10:50:59.056Z,2.77
2022-08-11T10:54:05.397Z,2.60
2022-08-11T10:59:43.979Z,2.50
2022-08-11T11:05:30.597Z,2.53
2022-08-11T11:11:11.388Z,2.40
2022-08-11T11:14:18.825Z,2.70
2022-08-11T11:22:51.257Z,2.37
2022-08-11T11:35:27.768Z,2.27
2022-08-11T11:43:56.332Z,2.60
2022-08-11T11:46:46.136Z,2.43
2022-08-11T11:52:22.551Z,2.30
2022-08-11T11:58:17.875Z,2.50
2022-08-11T12:01:20.792Z,2.53
2022-08-11T12:07:22.256Z,2.47
2022-08-11T12:13:34.049Z,2.00
2022-08-11T12:19:02.128Z,2.23
2022-08-11T12:24:51.415Z,2.57
2022-08-11T12:30:20.466Z,2.60
2022-08-11T12:36:00.995Z,1.80
2022-08-11T12:38:51.544Z,2.40
2022-08-11T12:41:58.732Z,2.23
2022-08-11T12:47:30.600Z,2.10
2022-08-11T12:50:36.982Z,2.50
2022-08-11T12:56:32.968Z,2.20
2022-08-11T13:02:22.506Z,2.20
2022-08-11T13:08:00.326Z,2.20
2022-08-11T13:11:08.391Z,2.27
2022-08-11T13:13:58.068Z,2.20
2022-08-11T13:19:36.326Z,2.50
2022-08-11T13:25:15.059Z,2.20
2022-08-11T13:31:05.111Z,1.83
2022-08-11T13:33:54.270Z,2.20
2022-08-11T13:36:43.369Z,2.33
2022-08-11T13:39:33.454Z,2.17
2022-08-11T13:45:10.495Z,2.33
2022-08-11T13:48:00.723Z,2.53
2022-08-11T13:51:07.019Z,2.20
2022-08-11T13:56:48.046Z,2.17
2022-08-11T14:02:30.281Z,2.20
2022-08-11T14:08:37.819Z,2.47
2022-08-11T14:12:22.225Z,2.00
2022-08-11T14:16:55.395Z,2.40
2022-08-11T14:19:47.081Z,1.97
2022-08-11T14:22:36.947Z,2.27
2022-08-11T14:28:35.109Z,2.23
2022-08-11T14:33:59.662Z,1.90
2022-08-11T14:36:41.010Z,2.43
2022-08-11T14:39:33.605Z,2.33
2022-08-11T14:45:57.789Z,2.43
2022-08-11T14:48:32.181Z,2.20
2022-08-11T14:51:24.747Z,2.77
2022-08-11T14:54:44.554Z,1.87
2022-08-11T14:57:55.795Z,2.50
2022-08-11T15:00:24.570Z,2.37
2022-08-11T15:06:05.030Z,2.23
2022-08-11T15:11:58.698Z,2.60
2022-08-11T15:15:25.048Z,2.60
2022-08-11T15:21:15.789Z,2.70
2022-08-11T15:27:09.198Z,2.60
2022-08-11T15:33:03.399Z,2.30
2022-08-11T15:36:10.381Z,2.50
2022-08-11T15:42:07.154Z,2.40
2022-08-11T15:45:17.713Z,2.50
2022-08-11T15:48:11.961Z,2.60
2022-08-11T15:51:04.203Z,2.60
2022-08-11T15:56:43.085Z,2.30
2022-08-11T15:59:51.204Z,2.40
2022-08-11T16:03:15.121Z,2.17
2022-08-11T16:08:48.461Z,2.37
2022-08-11T16:14:40.547Z,2.50
2022-08-11T16:17:31.676Z,2.30
2022-08-11T16:23:10.046Z,2.67
2022-08-11T16:27:11.492Z,2.37
2022-08-11T16:28:52.451Z,2.30
2022-08-11T16:34:44.775Z,2.50
2022-08-11T16:37:53.670Z,2.70
2022-08-11T16:46:39.327Z,2.27
2022-08-11T16:52:14.580Z,2.40
2022-08-11T16:58:08.379Z,2.30
2022-08-11T17:00:59.428Z,2.57
2022-08-11T17:06:48.777Z,2.67
2022-08-11T17:09:56.824Z,2.83
2022-08-11T17:13:04.248Z,2.70
2022-08-11T17:16:10.207Z,2.87
2022-08-11T17:22:05.236Z,2.70
2022-08-11T17:27:38.136Z,2.90
2022-08-11T17:33:32.073Z,2.60
2022-08-11T17:36:23.888Z,2.30
2022-08-11T17:39:14.496Z,2.53
2022-08-11T17:45:08.547Z,2.70
2022-08-11T17:50:44.934Z,2.40
2022-08-11T17:56:40.827Z,2.40
2022-08-11T18:02:39.693Z,2.27
2022-08-11T18:05:29.587Z,2.40
2022-08-11T18:12:11.081Z,2.40
2022-08-11T18:14:37.576Z,2.43
2022-08-11T18:17:43.872Z,2.50
2022-08-11T18:23:47.064Z,2.80
2022-08-11T18:29:31.971Z,2.90
2022-08-11T18:32:49.948Z,2.70
2022-08-11T18:35:54.413Z,2.83
2022-08-11T18:41:53.551Z,2.50
2022-08-11T18:47:39.263Z,2.90
2022-08-11T18:50:48.483Z,2.63
2022-08-11T18:59:45.411Z,3.27
2022-08-11T19:06:32.027Z,2.40
2022-08-11T19:11:43.703Z,2.63
2022-08-11T19:17:45.967Z,2.60
2022-08-11T19:20:53.693Z,2.80
2022-08-11T19:26:50.325Z,3.10
2022-08-11T19:30:04.797Z,2.90
2022-08-11T19:36:08.596Z,2.50
2022-08-11T19:45:00.310Z,2.70
2022-08-11T19:50:53.502Z,2.90
2022-08-11T19:54:04.847Z,2.93
2022-08-11T19:59:50.977Z,2.70
2022-08-11T20:08:20.919Z,2.90
2022-08-11T20:11:27.572Z,2.97
2022-08-11T20:17:18.861Z,3.23
2022-08-11T20:23:15.339Z,2.50
2022-08-11T20:26:30.778Z,2.50
2022-08-11T20:29:32.227Z,2.30
2022-08-11T20:32:38.993Z,2.70
2022-08-11T20:38:35.133Z,2.50
2022-08-11T20:44:32.875Z,2.10
2022-08-11T20:50:29.018Z,2.27
2022-08-11T20:59:17.593Z,2.60
2022-08-11T21:05:00.372Z,2.27
2022-08-11T21:08:08.817Z,2.67
2022-08-11T21:14:28.758Z,2.10
2022-08-11T21:20:20.651Z,2.17
2022-08-11T21:28:59.680Z,2.33
2022-08-11T21:32:07.770Z,2.60
2022-08-11T21:38:01.570Z,2.50
2022-08-11T21:41:10.855Z,2.40
2022-08-11T21:44:18.557Z,2.73
2022-08-11T21:47:43.740Z,2.33
2022-08-11T21:50:33.346Z,2.23
2022-08-11T21:59:32.259Z,2.50
2022-08-11T22:02:39.149Z,2.13
2022-08-11T22:08:35.639Z,2.60
2022-08-11T22:17:16.752Z,2.67
2022-08-11T22:20:27.400Z,2.43
2022-08-11T22:26:30.075Z,2.50
2022-08-11T22:29:50.051Z,2.97
2022-08-11T22:35:30.891Z,2.30
2022-08-11T22:41:20.739Z,3.17
2022-08-11T22:47:18.446Z,2.43
2022-08-11T22:53:09.759Z,2.33
2022-08-11T22:59:01.504Z,2.47
2022-08-11T23:04:57.002Z,2.40
2022-08-11T23:10:53.444Z,2.37
2022-08-11T23:16:50.065Z,2.43
2022-08-11T23:20:09.141Z,2.43
2022-08-11T23:25:48.585Z,2.57
2022-08-11T23:31:53.139Z,2.67
2022-08-11T23:35:04.441Z,2.20
2022-08-11T23:40:58.428Z,2.50
2022-08-11T23:46:47.867Z,2.50
2022-08-11T23:49:55.871Z,2.67
2022-08-11T23:55:51.305Z,2.00
